sensor_id;sensor_type;location;lat;lon;timestamp;P1;durP1;ratioP1;P2;durP2;ratioP2
1563;SDS011;775;51.958;7.976;2023-11-22T00:01:52;15.60;;;3.83;;
1563;SDS011;775;51.958;7.976;2023-11-22T00:04:19;17.00;;;4.17;;
1563;SDS011;775;51.958;7.976;2023-11-22T00:06:46;17.20;;;4.60;;
1563;SDS011;775;51.958;7.976;2023-11-22T00:09:13;16.60;;;4.10;;
1563;SDS011;775;51.958;7.976;2023-11-22T00:11:40;17.13;;;4.77;;
1563;SDS011;775;51.958;7.976;2023-11-22T00:14:08;17.03;;;4.30;;
1563;SDS011;775;51.958;7.976;2023-11-22T00:16:35;17.70;;;5.10;;
1563;SDS011;775;51.958;7.976;2023-11-22T00:19:06;17.30;;;5.00;;
1563;SDS011;775;51.958;7.976;2023-11-22T00:21:33;16.93;;;5.00;;
1563;SDS011;775;51.958;7.976;2023-11-22T00:24:00;17.80;;;5.37;;
1563;SDS011;775;51.958;7.976;2023-11-22T00:26:28;18.20;;;4.80;;
1563;SDS011;775;51.958;7.976;2023-11-22T00:28:55;19.40;;;5.43;;
1563;SDS011;775;51.958;7.976;2023-11-22T00:31:22;18.73;;;5.60;;
1563;SDS011;775;51.958;7.976;2023-11-22T00:33:49;18.00;;;5.10;;
1563;SDS011;775;51.958;7.976;2023-11-22T00:36:17;18.73;;;5.20;;
1563;SDS011;775;51.958;7.976;2023-11-22T00:38:44;18.60;;;5.97;;
1563;SDS011;775;51.958;7.976;2023-11-22T00:41:12;18.13;;;5.47;;
1563;SDS011;775;51.958;7.976;2023-11-22T00:43:40;18.37;;;4.90;;
1563;SDS011;775;51.958;7.976;2023-11-22T00:46:07;17.50;;;4.97;;
1563;SDS011;775;51.958;7.976;2023-11-22T00:48:35;20.40;;;5.37;;
1563;SDS011;775;51.958;7.976;2023-11-22T00:51:02;17.53;;;4.83;;
1563;SDS011;775;51.958;7.976;2023-11-22T00:53:34;16.93;;;4.33;;
1563;SDS011;775;51.958;7.976;2023-11-22T00:56:02;17.03;;;4.70;;
1563;SDS011;775;51.958;7.976;2023-11-22T00:58:29;17.70;;;4.93;;
1563;SDS011;775;51.958;7.976;2023-11-22T01:00:56;18.63;;;5.13;;
1563;SDS011;775;51.958;7.976;2023-11-22T01:03:23;17.70;;;4.87;;
1563;SDS011;775;51.958;7.976;2023-11-22T01:05:50;17.50;;;4.93;;
1563;SDS011;775;51.958;7.976;2023-11-22T01:08:18;19.00;;;4.90;;
1563;SDS011;775;51.958;7.976;2023-11-22T01:10:46;16.70;;;4.50;;
1563;SDS011;775;51.958;7.976;2023-11-22T01:13:13;17.43;;;5.30;;
1563;SDS011;775;51.958;7.976;2023-11-22T01:15:40;18.40;;;5.07;;
1563;SDS011;775;51.958;7.976;2023-11-22T01:18:09;18.43;;;4.27;;
1563;SDS011;775;51.958;7.976;2023-11-22T01:20:36;20.10;;;4.90;;
1563;SDS011;775;51.958;7.976;2023-11-22T01:23:03;17.87;;;4.30;;
1563;SDS011;775;51.958;7.976;2023-11-22T01:25:30;17.73;;;4.60;;
1563;SDS011;775;51.958;7.976;2023-11-22T01:27:59;18.07;;;5.40;;
1563;SDS011;775;51.958;7.976;2023-11-22T01:30:26;17.53;;;4.30;;
1563;SDS011;775;51.958;7.976;2023-11-22T01:32:54;16.00;;;4.00;;
1563;SDS011;775;51.958;7.976;2023-11-22T01:35:21;18.43;;;4.73;;
1563;SDS011;775;51.958;7.976;2023-11-22T01:37:48;17.20;;;4.07;;
1563;SDS011;775;51.958;7.976;2023-11-22T01:40:15;17.47;;;4.30;;
1563;SDS011;775;51.958;7.976;2023-11-22T01:42:44;16.77;;;4.10;;
1563;SDS011;775;51.958;7.976;2023-11-22T01:45:13;17.43;;;4.80;;
1563;SDS011;775;51.958;7.976;2023-11-22T01:47:40;19.47;;;4.60;;
1563;SDS011;775;51.958;7.976;2023-11-22T01:50:08;18.90;;;4.17;;
1563;SDS011;775;51.958;7.976;2023-11-22T01:52:36;16.83;;;4.50;;
1563;SDS011;775;51.958;7.976;2023-11-22T01:55:03;17.47;;;4.37;;
1563;SDS011;775;51.958;7.976;2023-11-22T01:57:30;17.47;;;5.30;;
1563;SDS011;775;51.958;7.976;2023-11-22T01:59:59;16.70;;;4.30;;
1563;SDS011;775;51.958;7.976;2023-11-22T02:02:27;19.33;;;5.00;;
1563;SDS011;775;51.958;7.976;2023-11-22T02:04:55;18.57;;;4.13;;
1563;SDS011;775;51.958;7.976;2023-11-22T02:07:22;18.17;;;4.77;;
1563;SDS011;775;51.958;7.976;2023-11-22T02:09:49;19.13;;;4.30;;
1563;SDS011;775;51.958;7.976;2023-11-22T02:12:18;18.00;;;4.27;;
1563;SDS011;775;51.958;7.976;2023-11-22T02:14:45;16.50;;;3.90;;
1563;SDS011;775;51.958;7.976;2023-11-22T02:17:12;15.97;;;3.73;;
1563;SDS011;775;51.958;7.976;2023-11-22T02:19:40;16.50;;;3.87;;
1563;SDS011;775;51.958;7.976;2023-11-22T02:22:07;19.77;;;4.40;;
1563;SDS011;775;51.958;7.976;2023-11-22T02:24:37;19.63;;;4.20;;
1563;SDS011;775;51.958;7.976;2023-11-22T02:27:05;19.00;;;4.53;;
1563;SDS011;775;51.958;7.976;2023-11-22T02:29:32;16.20;;;3.40;;
1563;SDS011;775;51.958;7.976;2023-11-22T02:31:59;16.40;;;4.17;;
1563;SDS011;775;51.958;7.976;2023-11-22T02:34:26;20.33;;;4.23;;
1563;SDS011;775;51.958;7.976;2023-11-22T02:36:53;16.53;;;4.07;;
1563;SDS011;775;51.958;7.976;2023-11-22T02:39:20;18.10;;;4.53;;
1563;SDS011;775;51.958;7.976;2023-11-22T02:41:51;16.53;;;4.13;;
1563;SDS011;775;51.958;7.976;2023-11-22T02:44:18;17.60;;;4.00;;
1563;SDS011;775;51.958;7.976;2023-11-22T02:46:45;16.17;;;3.80;;
1563;SDS011;775;51.958;7.976;2023-11-22T02:49:13;17.30;;;4.33;;
1563;SDS011;775;51.958;7.976;2023-11-22T02:51:40;16.43;;;4.30;;
1563;SDS011;775;51.958;7.976;2023-11-22T02:54:07;15.77;;;3.60;;
1563;SDS011;775;51.958;7.976;2023-11-22T02:56:34;17.43;;;4.00;;
1563;SDS011;775;51.958;7.976;2023-11-22T02:59:03;16.67;;;4.13;;
1563;SDS011;775;51.958;7.976;2023-11-22T03:01:30;17.50;;;4.33;;
1563;SDS011;775;51.958;7.976;2023-11-22T03:03:57;17.50;;;4.60;;
1563;SDS011;775;51.958;7.976;2023-11-22T03:06:25;20.83;;;4.53;;
1563;SDS011;775;51.958;7.976;2023-11-22T03:08:53;16.90;;;4.50;;
1563;SDS011;775;51.958;7.976;2023-11-22T03:11:20;16.50;;;4.07;;
1563;SDS011;775;51.958;7.976;2023-11-22T03:13:47;17.53;;;5.23;;
1563;SDS011;775;51.958;7.976;2023-11-22T03:16:16;19.20;;;5.17;;
1563;SDS011;775;51.958;7.976;2023-11-22T03:18:43;17.43;;;5.03;;
1563;SDS011;775;51.958;7.976;2023-11-22T03:21:11;16.90;;;4.50;;
1563;SDS011;775;51.958;7.976;2023-11-22T03:23:38;17.93;;;5.20;;
1563;SDS011;775;51.958;7.976;2023-11-22T03:26:05;16.77;;;4.10;;
1563;SDS011;775;51.958;7.976;2023-11-22T03:28:32;19.43;;;4.00;;
1563;SDS011;775;51.958;7.976;2023-11-22T03:31:00;17.63;;;3.90;;
1563;SDS011;775;51.958;7.976;2023-11-22T03:33:29;18.77;;;4.50;;
1563;SDS011;775;51.958;7.976;2023-11-22T03:35:56;18.33;;;4.10;;
1563;SDS011;775;51.958;7.976;2023-11-22T03:38:24;18.50;;;4.20;;
1563;SDS011;775;51.958;7.976;2023-11-22T03:40:51;17.37;;;4.20;;
1563;SDS011;775;51.958;7.976;2023-11-22T03:43:18;17.00;;;4.30;;
1563;SDS011;775;51.958;7.976;2023-11-22T03:45:45;17.40;;;4.40;;
1563;SDS011;775;51.958;7.976;2023-11-22T03:48:12;17.17;;;4.40;;
1563;SDS011;775;51.958;7.976;2023-11-22T03:50:41;16.90;;;3.97;;
1563;SDS011;775;51.958;7.976;2023-11-22T03:53:08;17.07;;;4.60;;
1563;SDS011;775;51.958;7.976;2023-11-22T03:55:35;17.43;;;4.57;;
1563;SDS011;775;51.958;7.976;2023-11-22T03:58:02;17.53;;;4.10;;
1563;SDS011;775;51.958;7.976;2023-11-22T04:00:29;17.40;;;4.97;;
1563;SDS011;775;51.958;7.976;2023-11-22T04:02:57;16.83;;;3.93;;
1563;SDS011;775;51.958;7.976;2023-11-22T04:05:26;18.17;;;4.27;;
1563;SDS011;775;51.958;7.976;2023-11-22T04:07:55;16.67;;;4.63;;
1563;SDS011;775;51.958;7.976;2023-11-22T04:10:22;20.13;;;4.77;;
1563;SDS011;775;51.958;7.976;2023-11-22T04:12:50;17.20;;;4.73;;
1563;SDS011;775;51.958;7.976;2023-11-22T04:15:17;16.80;;;4.73;;
1563;SDS011;775;51.958;7.976;2023-11-22T04:17:44;20.07;;;4.73;;
1563;SDS011;775;51.958;7.976;2023-11-22T04:20:12;16.87;;;4.20;;
1563;SDS011;775;51.958;7.976;2023-11-22T04:22:39;15.93;;;3.83;;
1563;SDS011;775;51.958;7.976;2023-11-22T04:25:08;16.33;;;4.00;;
1563;SDS011;775;51.958;7.976;2023-11-22T04:27:38;19.13;;;5.10;;
1563;SDS011;775;51.958;7.976;2023-11-22T04:30:06;16.60;;;4.70;;
1563;SDS011;775;51.958;7.976;2023-11-22T04:32:38;17.93;;;4.60;;
1563;SDS011;775;51.958;7.976;2023-11-22T04:35:05;16.47;;;4.30;;
1563;SDS011;775;51.958;7.976;2023-11-22T04:37:33;16.83;;;4.70;;
1563;SDS011;775;51.958;7.976;2023-11-22T04:40:00;16.63;;;4.27;;
1563;SDS011;775;51.958;7.976;2023-11-22T04:42:30;17.60;;;5.00;;
1563;SDS011;775;51.958;7.976;2023-11-22T04:44:57;16.97;;;4.40;;
1563;SDS011;775;51.958;7.976;2023-11-22T04:47:24;16.83;;;4.40;;
1563;SDS011;775;51.958;7.976;2023-11-22T04:49:51;17.67;;;4.10;;
1563;SDS011;775;51.958;7.976;2023-11-22T04:52:18;16.90;;;4.30;;
1563;SDS011;775;51.958;7.976;2023-11-22T04:54:45;18.60;;;4.30;;
1563;SDS011;775;51.958;7.976;2023-11-22T04:57:12;18.60;;;5.43;;
1563;SDS011;775;51.958;7.976;2023-11-22T04:59:40;16.97;;;3.97;;
1563;SDS011;775;51.958;7.976;2023-11-22T05:02:07;16.43;;;3.67;;
1563;SDS011;775;51.958;7.976;2023-11-22T05:04:36;17.37;;;4.33;;
1563;SDS011;775;51.958;7.976;2023-11-22T05:07:03;19.07;;;4.27;;
1563;SDS011;775;51.958;7.976;2023-11-22T05:09:30;20.87;;;5.03;;
1563;SDS011;775;51.958;7.976;2023-11-22T05:11:57;19.27;;;5.03;;
1563;SDS011;775;51.958;7.976;2023-11-22T05:14:25;17.47;;;4.53;;
1563;SDS011;775;51.958;7.976;2023-11-22T05:16:53;19.13;;;5.43;;
1563;SDS011;775;51.958;7.976;2023-11-22T05:19:21;17.93;;;5.33;;
1563;SDS011;775;51.958;7.976;2023-11-22T05:21:48;18.20;;;4.63;;
1563;SDS011;775;51.958;7.976;2023-11-22T05:24:15;18.03;;;5.37;;
1563;SDS011;775;51.958;7.976;2023-11-22T05:26:42;17.70;;;4.40;;
1563;SDS011;775;51.958;7.976;2023-11-22T05:29:09;17.10;;;4.67;;
1563;SDS011;775;51.958;7.976;2023-11-22T05:31:37;16.57;;;3.90;;
1563;SDS011;775;51.958;7.976;2023-11-22T05:34:05;17.83;;;4.77;;
1563;SDS011;775;51.958;7.976;2023-11-22T05:36:32;18.97;;;4.37;;
1563;SDS011;775;51.958;7.976;2023-11-22T05:38:59;17.63;;;4.53;;
1563;SDS011;775;51.958;7.976;2023-11-22T05:41:28;16.40;;;4.20;;
1563;SDS011;775;51.958;7.976;2023-11-22T05:43:56;19.80;;;4.70;;
1563;SDS011;775;51.958;7.976;2023-11-22T05:46:23;17.67;;;4.80;;
1563;SDS011;775;51.958;7.976;2023-11-22T05:48:50;19.07;;;5.60;;
1563;SDS011;775;51.958;7.976;2023-11-22T05:51:19;16.70;;;3.70;;
1563;SDS011;775;51.958;7.976;2023-11-22T05:53:46;18.53;;;4.60;;
1563;SDS011;775;51.958;7.976;2023-11-22T05:56:13;17.40;;;4.43;;
1563;SDS011;775;51.958;7.976;2023-11-22T05:58:42;17.53;;;4.30;;
1563;SDS011;775;51.958;7.976;2023-11-22T06:01:09;17.83;;;4.20;;
1563;SDS011;775;51.958;7.976;2023-11-22T06:03:37;16.40;;;4.13;;
1563;SDS011;775;51.958;7.976;2023-11-22T06:06:04;19.40;;;4.63;;
1563;SDS011;775;51.958;7.976;2023-11-22T06:08:33;18.13;;;4.83;;
1563;SDS011;775;51.958;7.976;2023-11-22T06:11:00;17.37;;;5.50;;
1563;SDS011;775;51.958;7.976;2023-11-22T06:13:28;16.67;;;4.20;;
1563;SDS011;775;51.958;7.976;2023-11-22T06:15:55;17.50;;;4.90;;
1563;SDS011;775;51.958;7.976;2023-11-22T06:18:22;16.70;;;4.80;;
1563;SDS011;775;51.958;7.976;2023-11-22T06:20:54;18.30;;;4.27;;
1563;SDS011;775;51.958;7.976;2023-11-22T06:23:21;17.70;;;5.13;;
1563;SDS011;775;51.958;7.976;2023-11-22T06:25:50;19.13;;;4.33;;
1563;SDS011;775;51.958;7.976;2023-11-22T06:28:17;17.60;;;4.70;;
1563;SDS011;775;51.958;7.976;2023-11-22T06:30:44;19.13;;;4.73;;
1563;SDS011;775;51.958;7.976;2023-11-22T06:33:11;18.30;;;4.63;;
1563;SDS011;775;51.958;7.976;2023-11-22T06:35:38;16.63;;;4.73;;
1563;SDS011;775;51.958;7.976;2023-11-22T06:38:07;18.00;;;5.13;;
1563;SDS011;775;51.958;7.976;2023-11-22T06:40:34;18.13;;;5.20;;
1563;SDS011;775;51.958;7.976;2023-11-22T06:43:03;18.30;;;5.33;;
1563;SDS011;775;51.958;7.976;2023-11-22T06:45:30;16.80;;;4.50;;
1563;SDS011;775;51.958;7.976;2023-11-22T06:47:57;19.20;;;5.50;;
1563;SDS011;775;51.958;7.976;2023-11-22T06:50:24;18.50;;;6.00;;
1563;SDS011;775;51.958;7.976;2023-11-22T06:52:51;18.43;;;4.80;;
1563;SDS011;775;51.958;7.976;2023-11-22T06:55:19;17.40;;;4.90;;
1563;SDS011;775;51.958;7.976;2023-11-22T06:57:47;17.40;;;5.00;;
1563;SDS011;775;51.958;7.976;2023-11-22T07:00:17;17.57;;;5.07;;
1563;SDS011;775;51.958;7.976;2023-11-22T07:02:45;17.90;;;5.30;;
1563;SDS011;775;51.958;7.976;2023-11-22T07:05:12;20.53;;;5.17;;
1563;SDS011;775;51.958;7.976;2023-11-22T07:07:39;18.37;;;5.40;;
1563;SDS011;775;51.958;7.976;2023-11-22T07:10:06;18.53;;;5.20;;
1563;SDS011;775;51.958;7.976;2023-11-22T07:12:36;18.40;;;4.47;;
1563;SDS011;775;51.958;7.976;2023-11-22T07:15:05;17.20;;;4.20;;
1563;SDS011;775;51.958;7.976;2023-11-22T07:17:33;20.80;;;5.23;;
1563;SDS011;775;51.958;7.976;2023-11-22T07:20:01;18.77;;;5.60;;
1563;SDS011;775;51.958;7.976;2023-11-22T07:22:33;23.93;;;4.67;;
1563;SDS011;775;51.958;7.976;2023-11-22T07:25:00;23.10;;;5.17;;
1563;SDS011;775;51.958;7.976;2023-11-22T07:27:27;20.70;;;5.57;;
1563;SDS011;775;51.958;7.976;2023-11-22T07:29:54;19.10;;;5.30;;
1563;SDS011;775;51.958;7.976;2023-11-22T07:32:21;18.07;;;4.50;;
1563;SDS011;775;51.958;7.976;2023-11-22T07:34:50;18.17;;;4.87;;
1563;SDS011;775;51.958;7.976;2023-11-22T07:37:20;18.83;;;5.03;;
1563;SDS011;775;51.958;7.976;2023-11-22T07:39:48;16.80;;;4.83;;
1563;SDS011;775;51.958;7.976;2023-11-22T07:42:16;16.93;;;4.23;;
1563;SDS011;775;51.958;7.976;2023-11-22T07:44:43;18.47;;;5.30;;
1563;SDS011;775;51.958;7.976;2023-11-22T07:47:11;17.67;;;5.20;;
1563;SDS011;775;51.958;7.976;2023-11-22T07:49:38;17.43;;;4.90;;
1563;SDS011;775;51.958;7.976;2023-11-22T07:52:08;18.73;;;5.13;;
1563;SDS011;775;51.958;7.976;2023-11-22T07:54:38;16.70;;;4.87;;
1563;SDS011;775;51.958;7.976;2023-11-22T07:57:06;17.67;;;5.03;;
1563;SDS011;775;51.958;7.976;2023-11-22T07:59:33;23.20;;;5.30;;
1563;SDS011;775;51.958;7.976;2023-11-22T08:02:00;21.00;;;5.03;;
1563;SDS011;775;51.958;7.976;2023-11-22T08:04:27;17.90;;;4.30;;
1563;SDS011;775;51.958;7.976;2023-11-22T08:06:57;25.63;;;5.20;;
1563;SDS011;775;51.958;7.976;2023-11-22T08:09:25;19.47;;;5.33;;
1563;SDS011;775;51.958;7.976;2023-11-22T08:11:56;18.47;;;5.33;;
1563;SDS011;775;51.958;7.976;2023-11-22T08:14:23;17.83;;;5.60;;
1563;SDS011;775;51.958;7.976;2023-11-22T08:16:52;17.80;;;5.60;;
1563;SDS011;775;51.958;7.976;2023-11-22T08:19:19;19.40;;;6.40;;
1563;SDS011;775;51.958;7.976;2023-11-22T08:21:48;18.97;;;6.40;;
1563;SDS011;775;51.958;7.976;2023-11-22T08:24:15;17.70;;;5.20;;
1563;SDS011;775;51.958;7.976;2023-11-22T08:26:45;18.40;;;5.20;;
1563;SDS011;775;51.958;7.976;2023-11-22T08:29:12;17.37;;;5.13;;
1563;SDS011;775;51.958;7.976;2023-11-22T08:31:39;16.80;;;4.37;;
1563;SDS011;775;51.958;7.976;2023-11-22T08:34:06;17.10;;;4.17;;
1563;SDS011;775;51.958;7.976;2023-11-22T08:36:34;16.90;;;4.93;;
1563;SDS011;775;51.958;7.976;2023-11-22T08:39:01;16.33;;;4.30;;
1563;SDS011;775;51.958;7.976;2023-11-22T08:41:29;16.97;;;4.50;;
1563;SDS011;775;51.958;7.976;2023-11-22T08:43:58;16.83;;;4.30;;
1563;SDS011;775;51.958;7.976;2023-11-22T08:46:26;17.10;;;4.23;;
1563;SDS011;775;51.958;7.976;2023-11-22T08:48:53;15.80;;;3.97;;
1563;SDS011;775;51.958;7.976;2023-11-22T08:51:21;16.40;;;3.97;;
1563;SDS011;775;51.958;7.976;2023-11-22T08:53:48;16.00;;;4.00;;
1563;SDS011;775;51.958;7.976;2023-11-22T08:56:16;16.57;;;4.43;;
1563;SDS011;775;51.958;7.976;2023-11-22T08:58:43;16.53;;;4.40;;
1563;SDS011;775;51.958;7.976;2023-11-22T09:01:11;17.63;;;5.47;;
1563;SDS011;775;51.958;7.976;2023-11-22T09:03:39;17.63;;;4.10;;
1563;SDS011;775;51.958;7.976;2023-11-22T09:06:07;16.83;;;3.97;;
1563;SDS011;775;51.958;7.976;2023-11-22T09:08:34;16.87;;;4.73;;
1563;SDS011;775;51.958;7.976;2023-11-22T09:11:01;21.27;;;5.97;;
1563;SDS011;775;51.958;7.976;2023-11-22T09:13:31;19.03;;;5.73;;
1563;SDS011;775;51.958;7.976;2023-11-22T09:15:59;17.90;;;5.30;;
1563;SDS011;775;51.958;7.976;2023-11-22T09:18:31;19.00;;;5.80;;
1563;SDS011;775;51.958;7.976;2023-11-22T09:20:58;18.10;;;5.30;;
1563;SDS011;775;51.958;7.976;2023-11-22T09:23:25;18.40;;;5.37;;
1563;SDS011;775;51.958;7.976;2023-11-22T09:25:52;17.50;;;5.13;;
1563;SDS011;775;51.958;7.976;2023-11-22T09:28:19;17.83;;;5.67;;
1563;SDS011;775;51.958;7.976;2023-11-22T09:30:46;18.23;;;5.30;;
1563;SDS011;775;51.958;7.976;2023-11-22T09:33:14;21.70;;;6.10;;
1563;SDS011;775;51.958;7.976;2023-11-22T09:35:44;20.63;;;5.93;;
1563;SDS011;775;51.958;7.976;2023-11-22T09:38:12;17.33;;;5.13;;
1563;SDS011;775;51.958;7.976;2023-11-22T09:40:40;18.67;;;6.47;;
1563;SDS011;775;51.958;7.976;2023-11-22T09:43:08;19.40;;;6.40;;
1563;SDS011;775;51.958;7.976;2023-11-22T09:45:36;19.83;;;6.73;;
1563;SDS011;775;51.958;7.976;2023-11-22T09:48:04;20.30;;;6.90;;
1563;SDS011;775;51.958;7.976;2023-11-22T09:50:35;19.23;;;6.37;;
1563;SDS011;775;51.958;7.976;2023-11-22T09:53:08;20.83;;;6.73;;
1563;SDS011;775;51.958;7.976;2023-11-22T09:55:37;19.33;;;6.37;;
1563;SDS011;775;51.958;7.976;2023-11-22T09:58:04;22.97;;;6.80;;
1563;SDS011;775;51.958;7.976;2023-11-22T10:00:32;19.10;;;6.90;;
1563;SDS011;775;51.958;7.976;2023-11-22T10:02:59;19.60;;;6.60;;
1563;SDS011;775;51.958;7.976;2023-11-22T10:05:26;19.80;;;6.13;;
1563;SDS011;775;51.958;7.976;2023-11-22T10:07:53;20.70;;;6.43;;
1563;SDS011;775;51.958;7.976;2023-11-22T10:10:22;18.60;;;5.87;;
1563;SDS011;775;51.958;7.976;2023-11-22T10:12:52;19.77;;;7.07;;
1563;SDS011;775;51.958;7.976;2023-11-22T10:15:21;20.77;;;6.17;;
1563;SDS011;775;51.958;7.976;2023-11-22T10:17:53;20.10;;;6.37;;
1563;SDS011;775;51.958;7.976;2023-11-22T10:20:22;20.77;;;6.23;;
1563;SDS011;775;51.958;7.976;2023-11-22T10:22:51;18.47;;;6.33;;
1563;SDS011;775;51.958;7.976;2023-11-22T10:25:19;19.37;;;6.20;;
1563;SDS011;775;51.958;7.976;2023-11-22T10:27:49;19.23;;;5.13;;
1563;SDS011;775;51.958;7.976;2023-11-22T10:30:17;18.20;;;5.60;;
1563;SDS011;775;51.958;7.976;2023-11-22T10:32:44;18.07;;;5.37;;
1563;SDS011;775;51.958;7.976;2023-11-22T10:35:11;20.50;;;5.40;;
1563;SDS011;775;51.958;7.976;2023-11-22T10:37:41;19.20;;;5.30;;
1563;SDS011;775;51.958;7.976;2023-11-22T10:40:11;18.03;;;5.23;;
1563;SDS011;775;51.958;7.976;2023-11-22T10:42:38;18.43;;;5.67;;
1563;SDS011;775;51.958;7.976;2023-11-22T10:45:09;19.60;;;5.30;;
1563;SDS011;775;51.958;7.976;2023-11-22T10:47:36;18.00;;;5.30;;
1563;SDS011;775;51.958;7.976;2023-11-22T10:50:04;17.53;;;4.83;;
1563;SDS011;775;51.958;7.976;2023-11-22T10:52:33;19.00;;;5.20;;
1563;SDS011;775;51.958;7.976;2023-11-22T10:55:02;20.97;;;6.77;;
1563;SDS011;775;51.958;7.976;2023-11-22T10:57:31;18.23;;;5.40;;
1563;SDS011;775;51.958;7.976;2023-11-22T10:59:59;20.53;;;5.67;;
1563;SDS011;775;51.958;7.976;2023-11-22T11:02:32;18.37;;;5.33;;
1563;SDS011;775;51.958;7.976;2023-11-22T11:05:02;19.83;;;6.00;;
1563;SDS011;775;51.958;7.976;2023-11-22T11:07:32;19.33;;;5.80;;
1563;SDS011;775;51.958;7.976;2023-11-22T11:10:04;27.50;;;11.60;;
1563;SDS011;775;51.958;7.976;2023-11-22T11:12:31;23.00;;;10.17;;
1563;SDS011;775;51.958;7.976;2023-11-22T11:14:58;22.63;;;8.37;;
1563;SDS011;775;51.958;7.976;2023-11-22T11:17:26;22.50;;;7.50;;
1563;SDS011;775;51.958;7.976;2023-11-22T11:19:54;23.57;;;6.00;;
1563;SDS011;775;51.958;7.976;2023-11-22T11:22:21;20.37;;;5.27;;
1563;SDS011;775;51.958;7.976;2023-11-22T11:24:49;25.23;;;6.93;;
1563;SDS011;775;51.958;7.976;2023-11-22T11:27:26;21.30;;;6.97;;
1563;SDS011;775;51.958;7.976;2023-11-22T11:29:54;17.23;;;4.23;;
1563;SDS011;775;51.958;7.976;2023-11-22T11:32:29;16.70;;;4.03;;
1563;SDS011;775;51.958;7.976;2023-11-22T11:34:59;16.90;;;3.80;;
1563;SDS011;775;51.958;7.976;2023-11-22T11:37:31;17.67;;;4.53;;
1563;SDS011;775;51.958;7.976;2023-11-22T11:39:58;19.63;;;4.00;;
1563;SDS011;775;51.958;7.976;2023-11-22T11:42:25;16.90;;;4.83;;
1563;SDS011;775;51.958;7.976;2023-11-22T11:45:05;20.37;;;6.27;;
1563;SDS011;775;51.958;7.976;2023-11-22T11:47:34;22.30;;;5.77;;
1563;SDS011;775;51.958;7.976;2023-11-22T11:50:01;18.80;;;4.93;;
1563;SDS011;775;51.958;7.976;2023-11-22T11:52:29;41.70;;;19.00;;
1563;SDS011;775;51.958;7.976;2023-11-22T11:54:57;37.30;;;14.10;;
1563;SDS011;775;51.958;7.976;2023-11-22T11:57:24;20.27;;;6.20;;
1563;SDS011;775;51.958;7.976;2023-11-22T11:59:51;18.33;;;5.27;;
1563;SDS011;775;51.958;7.976;2023-11-22T12:02:21;19.53;;;4.10;;
1563;SDS011;775;51.958;7.976;2023-11-22T12:04:48;17.20;;;4.50;;
1563;SDS011;775;51.958;7.976;2023-11-22T12:07:16;21.63;;;6.50;;
1563;SDS011;775;51.958;7.976;2023-11-22T12:09:43;23.60;;;8.00;;
1563;SDS011;775;51.958;7.976;2023-11-22T12:12:11;26.10;;;8.13;;
1563;SDS011;775;51.958;7.976;2023-11-22T12:14:38;20.10;;;6.67;;
1563;SDS011;775;51.958;7.976;2023-11-22T12:17:06;16.30;;;3.43;;
1563;SDS011;775;51.958;7.976;2023-11-22T12:19:33;16.57;;;3.90;;
1563;SDS011;775;51.958;7.976;2023-11-22T12:22:00;18.87;;;3.57;;
1563;SDS011;775;51.958;7.976;2023-11-22T12:24:28;17.60;;;3.53;;
1563;SDS011;775;51.958;7.976;2023-11-22T12:26:55;19.17;;;3.70;;
1563;SDS011;775;51.958;7.976;2023-11-22T12:29:23;19.37;;;4.10;;
1563;SDS011;775;51.958;7.976;2023-11-22T12:31:51;15.30;;;3.50;;
1563;SDS011;775;51.958;7.976;2023-11-22T12:34:20;19.67;;;4.47;;
1563;SDS011;775;51.958;7.976;2023-11-22T12:36:49;17.33;;;3.83;;
1563;SDS011;775;51.958;7.976;2023-11-22T12:39:16;16.80;;;3.67;;
1563;SDS011;775;51.958;7.976;2023-11-22T12:41:49;15.07;;;3.50;;
1563;SDS011;775;51.958;7.976;2023-11-22T12:44:17;18.03;;;3.70;;
1563;SDS011;775;51.958;7.976;2023-11-22T12:46:45;15.20;;;3.07;;
1563;SDS011;775;51.958;7.976;2023-11-22T12:49:14;15.73;;;2.57;;
1563;SDS011;775;51.958;7.976;2023-11-22T12:51:45;15.07;;;2.97;;
1563;SDS011;775;51.958;7.976;2023-11-22T12:54:12;15.97;;;3.30;;
1563;SDS011;775;51.958;7.976;2023-11-22T12:56:40;16.03;;;3.60;;
1563;SDS011;775;51.958;7.976;2023-11-22T12:59:08;15.97;;;3.80;;
1563;SDS011;775;51.958;7.976;2023-11-22T13:01:37;14.97;;;2.80;;
1563;SDS011;775;51.958;7.976;2023-11-22T13:04:04;15.70;;;2.77;;
1563;SDS011;775;51.958;7.976;2023-11-22T13:06:32;15.63;;;3.40;;
1563;SDS011;775;51.958;7.976;2023-11-22T13:08:59;14.70;;;2.83;;
1563;SDS011;775;51.958;7.976;2023-11-22T13:11:26;15.00;;;3.80;;
1563;SDS011;775;51.958;7.976;2023-11-22T13:13:53;17.83;;;4.00;;
1563;SDS011;775;51.958;7.976;2023-11-22T13:16:22;16.17;;;3.80;;
1563;SDS011;775;51.958;7.976;2023-11-22T13:18:49;16.67;;;3.80;;
1563;SDS011;775;51.958;7.976;2023-11-22T13:21:17;14.70;;;3.00;;
1563;SDS011;775;51.958;7.976;2023-11-22T13:23:44;15.90;;;3.83;;
1563;SDS011;775;51.958;7.976;2023-11-22T13:26:11;16.87;;;4.00;;
1563;SDS011;775;51.958;7.976;2023-11-22T13:28:39;16.50;;;4.60;;
1563;SDS011;775;51.958;7.976;2023-11-22T13:31:07;17.20;;;4.10;;
1563;SDS011;775;51.958;7.976;2023-11-22T13:33:36;19.13;;;5.40;;
1563;SDS011;775;51.958;7.976;2023-11-22T13:36:03;16.97;;;5.03;;
1563;SDS011;775;51.958;7.976;2023-11-22T13:38:32;16.20;;;4.60;;
1563;SDS011;775;51.958;7.976;2023-11-22T13:41:00;16.97;;;4.63;;
1563;SDS011;775;51.958;7.976;2023-11-22T13:43:27;20.37;;;4.70;;
1563;SDS011;775;51.958;7.976;2023-11-22T13:45:54;15.87;;;3.73;;
1563;SDS011;775;51.958;7.976;2023-11-22T13:48:21;17.30;;;5.00;;
1563;SDS011;775;51.958;7.976;2023-11-22T13:50:50;16.03;;;3.97;;
1563;SDS011;775;51.958;7.976;2023-11-22T13:53:17;15.30;;;4.00;;
1563;SDS011;775;51.958;7.976;2023-11-22T13:55:47;17.33;;;4.43;;
1563;SDS011;775;51.958;7.976;2023-11-22T13:58:15;15.70;;;4.10;;
1563;SDS011;775;51.958;7.976;2023-11-22T14:00:42;16.40;;;4.90;;
1563;SDS011;775;51.958;7.976;2023-11-22T14:03:12;16.17;;;4.60;;
1563;SDS011;775;51.958;7.976;2023-11-22T14:05:39;16.70;;;4.23;;
1563;SDS011;775;51.958;7.976;2023-11-22T14:08:08;16.77;;;4.27;;
1563;SDS011;775;51.958;7.976;2023-11-22T14:10:35;15.53;;;4.07;;
1563;SDS011;775;51.958;7.976;2023-11-22T14:13:02;15.67;;;3.63;;
1563;SDS011;775;51.958;7.976;2023-11-22T14:15:31;14.80;;;3.50;;
1563;SDS011;775;51.958;7.976;2023-11-22T14:17:58;15.27;;;3.67;;
1563;SDS011;775;51.958;7.976;2023-11-22T14:20:25;16.97;;;3.73;;
1563;SDS011;775;51.958;7.976;2023-11-22T14:22:54;16.57;;;3.90;;
1563;SDS011;775;51.958;7.976;2023-11-22T14:25:23;15.20;;;3.97;;
1563;SDS011;775;51.958;7.976;2023-11-22T14:27:50;15.20;;;3.53;;
1563;SDS011;775;51.958;7.976;2023-11-22T14:30:20;15.70;;;4.03;;
1563;SDS011;775;51.958;7.976;2023-11-22T14:32:48;16.33;;;3.70;;
1563;SDS011;775;51.958;7.976;2023-11-22T14:35:16;16.10;;;3.80;;
1563;SDS011;775;51.958;7.976;2023-11-22T14:37:43;14.67;;;3.70;;
1563;SDS011;775;51.958;7.976;2023-11-22T14:40:10;15.40;;;3.70;;
1563;SDS011;775;51.958;7.976;2023-11-22T14:42:40;15.30;;;3.70;;
1563;SDS011;775;51.958;7.976;2023-11-22T14:45:07;17.77;;;4.13;;
1563;SDS011;775;51.958;7.976;2023-11-22T14:47:36;15.83;;;3.70;;
1563;SDS011;775;51.958;7.976;2023-11-22T14:50:05;16.50;;;3.97;;
1563;SDS011;775;51.958;7.976;2023-11-22T14:52:35;17.20;;;3.97;;
1563;SDS011;775;51.958;7.976;2023-11-22T14:55:02;15.30;;;4.30;;
1563;SDS011;775;51.958;7.976;2023-11-22T14:57:30;15.23;;;4.20;;
1563;SDS011;775;51.958;7.976;2023-11-22T14:59:58;17.07;;;4.80;;
1563;SDS011;775;51.958;7.976;2023-11-22T15:02:25;15.63;;;4.00;;
1563;SDS011;775;51.958;7.976;2023-11-22T15:04:53;15.63;;;3.93;;
1563;SDS011;775;51.958;7.976;2023-11-22T15:07:21;17.70;;;4.40;;
1563;SDS011;775;51.958;7.976;2023-11-22T15:09:48;16.53;;;3.93;;
1563;SDS011;775;51.958;7.976;2023-11-22T15:12:15;17.50;;;4.60;;
1563;SDS011;775;51.958;7.976;2023-11-22T15:14:43;20.43;;;4.90;;
1563;SDS011;775;51.958;7.976;2023-11-22T15:17:14;17.60;;;4.67;;
1563;SDS011;775;51.958;7.976;2023-11-22T15:19:41;18.23;;;4.60;;